Time,TemperatureF,DewpointF,PressureIn,WindDirection,WindDirectionDegrees,WindSpeedMPH,WindSpeedGustMPH,Humidity,HourlyPrecipIn,Conditions,Clouds,dailyrainin,SoftwareType,DateUTC
2013-10-04 00:13:00,37.0,14.0,-100.00,West,272,3.0,12.0,38,0.00,,,-99.99,,2013-10-04 07:13:00,
2013-10-04 00:24:00,37.0,14.0,-100.00,North,3,6.0,20.0,39,0.00,,,-99.99,,2013-10-04 07:24:00,
2013-10-04 00:33:00,37.0,14.0,-100.00,North,3,6.0,20.0,39,0.00,,,-99.99,,2013-10-04 07:33:00,
2013-10-04 00:44:00,37.0,14.0,-100.00,North,3,6.0,20.0,39,0.00,,,-99.99,,2013-10-04 07:44:00,
2013-10-04 00:53:00,37.0,16.0,-100.00,North,3,5.0,16.0,41,0.00,,,-99.99,,2013-10-04 07:53:00,
2013-10-04 01:15:00,37.0,17.0,-100.00,North,359,8.0,23.0,43,0.00,,,-99.99,,2013-10-04 08:15:00,
2013-10-04 01:24:00,37.0,17.0,-100.00,North,359,8.0,23.0,43,0.00,,,-99.99,,2013-10-04 08:24:00,
2013-10-04 01:45:00,36.0,17.0,-100.00,NE,37,4.0,12.0,45,0.00,,,-99.99,,2013-10-04 08:45:00,
2013-10-04 01:54:00,36.0,17.0,-100.00,North,354,5.0,17.0,45,0.00,,,-99.99,,2013-10-04 08:54:00,
2013-10-04 02:14:00,36.0,17.0,-100.00,NNW,339,6.0,17.0,45,0.00,,,-99.99,,2013-10-04 09:14:00,
2013-10-04 02:22:00,36.0,17.0,-100.00,North,3,7.0,20.0,46,0.00,,,-99.99,,2013-10-04 09:22:00,
2013-10-04 02:24:00,36.0,17.0,-100.00,NNW,339,6.0,17.0,45,0.00,,,-99.99,,2013-10-04 09:24:00,
2013-10-04 02:59:00,36.0,17.0,-100.00,North,3,7.0,20.0,46,0.00,,,-99.99,,2013-10-04 09:59:00,
2013-10-04 03:07:00,36.0,17.0,-100.00,North,3,7.0,20.0,46,0.00,,,-99.99,,2013-10-04 10:07:00,
2013-10-04 03:17:00,36.0,17.0,-100.00,North,3,7.0,20.0,46,0.00,,,-99.99,,2013-10-04 10:17:00,
2013-10-04 03:51:00,35.0,17.0,-100.00,North,11,5.0,15.0,48,0.00,,,-99.99,,2013-10-04 10:51:00,
2013-10-04 04:17:00,35.0,18.0,-100.00,North,10,7.0,18.0,49,0.00,,,-99.99,,2013-10-04 11:17:00,
2013-10-04 04:26:00,35.0,18.0,-100.00,NNE,14,6.0,22.0,49,0.00,,,-99.99,,2013-10-04 11:26:00,
2013-10-04 04:46:00,34.0,17.0,-100.00,NNE,27,4.0,14.0,50,0.00,,,-99.99,,2013-10-04 11:46:00,
2013-10-04 05:17:00,34.0,18.0,-100.00,East,79,4.0,14.0,51,0.00,,,-99.99,,2013-10-04 12:17:00,
2013-10-04 05:26:00,34.0,18.0,-100.00,NNE,18,6.0,16.0,52,0.00,,,-99.99,,2013-10-04 12:26:00,
2013-10-04 05:46:00,33.0,18.0,-100.00,NNE,17,5.0,19.0,53,0.00,,,-99.99,,2013-10-04 12:46:00,
2013-10-04 05:55:00,33.0,18.0,-100.00,NNE,17,5.0,19.0,53,0.00,,,-99.99,,2013-10-04 12:55:00,
2013-10-04 06:13:00,33.0,19.0,-100.00,North,11,5.0,17.0,55,0.00,,,-99.99,,2013-10-04 13:13:00,
2013-10-04 06:26:00,33.0,19.0,-100.00,NNE,14,6.0,22.0,55,0.00,,,-99.99,,2013-10-04 13:26:00,
2013-10-04 06:46:00,33.0,19.0,-100.00,North,4,4.0,17.0,56,0.00,,,-99.99,,2013-10-04 13:46:00,
2013-10-04 07:13:00,33.0,19.0,-100.00,North,11,3.0,13.0,57,0.00,,,-99.99,,2013-10-04 14:13:00,
2013-10-04 07:47:00,33.0,19.0,-100.00,NNE,18,5.0,18.0,57,0.00,,,-99.99,,2013-10-04 14:47:00,
2013-10-04 07:56:00,32.0,19.0,-100.00,NE,49,4.0,13.0,58,0.00,,,-99.99,,2013-10-04 14:56:00,
2013-10-04 08:07:00,32.0,19.0,-100.00,NE,49,4.0,13.0,58,0.00,,,-99.99,,2013-10-04 15:07:00,
2013-10-04 08:27:00,33.0,20.0,-100.00,North,4,5.0,20.0,58,0.00,,,-99.99,,2013-10-04 15:27:00,
2013-10-04 08:47:00,33.0,20.0,-100.00,North,1,4.0,15.0,58,0.00,,,-99.99,,2013-10-04 15:47:00,
2013-10-04 08:57:00,34.0,20.0,-100.00,NNE,14,8.0,21.0,56,0.00,,,-99.99,,2013-10-04 15:57:00,
2013-10-04 09:16:00,35.0,20.0,-100.00,North,0,7.0,27.0,53,0.00,,,-99.99,,2013-10-04 16:16:00,
2013-10-04 09:26:00,35.0,20.0,-100.00,North,0,7.0,27.0,53,0.00,,,-99.99,,2013-10-04 16:26:00,
2013-10-04 09:46:00,36.0,20.0,-100.00,North,3,6.0,21.0,51,0.00,,,-99.99,,2013-10-04 16:46:00,
2013-10-04 09:59:00,36.0,19.0,-100.00,North,3,9.0,27.0,50,0.00,,,-99.99,,2013-10-04 16:59:00,
2013-10-04 10:05:00,36.0,19.0,-100.00,North,3,9.0,27.0,50,0.00,,,-99.99,,2013-10-04 17:05:00,
2013-10-04 11:17:00,38.0,20.0,-100.00,NNE,14,8.0,26.0,47,0.00,,,-99.99,,2013-10-04 18:17:00,
2013-10-04 11:27:00,39.0,19.0,-100.00,North,1,10.0,23.0,44,0.00,,,-99.99,,2013-10-04 18:27:00,
2013-10-04 11:47:00,41.0,19.0,-100.00,North,10,10.0,27.0,41,0.00,,,-99.99,,2013-10-04 18:47:00,
2013-10-04 12:12:00,42.0,14.0,-100.00,NNE,21,9.0,23.0,32,0.00,,,-99.99,,2013-10-04 19:12:00,
2013-10-04 12:22:00,44.0,15.0,-100.00,North,354,9.0,24.0,31,0.00,,,-99.99,,2013-10-04 19:22:00,
2013-10-04 12:43:00,44.0,15.0,-100.00,NNE,28,8.0,26.0,31,0.00,,,-99.99,,2013-10-04 19:43:00,
2013-10-04 13:11:00,45.0,15.0,-100.00,NNE,27,11.0,26.0,30,0.00,,,-99.99,,2013-10-04 20:11:00,
2013-10-04 13:22:00,46.0,14.0,-100.00,NNE,17,10.0,26.0,27,0.00,,,-99.99,,2013-10-04 20:22:00,
2013-10-04 13:42:00,47.0,13.0,-100.00,NNE,21,7.0,21.0,25,0.00,,,-99.99,,2013-10-04 20:42:00,
2013-10-04 14:11:00,48.0,11.0,-100.00,NNE,20,9.0,26.0,22,0.00,,,-99.99,,2013-10-04 21:11:00,
2013-10-04 14:22:00,48.0,11.0,-100.00,NNE,20,9.0,26.0,22,0.00,,,-99.99,,2013-10-04 21:22:00,
2013-10-04 14:43:00,48.0,12.0,-100.00,NNE,16,11.0,26.0,23,0.00,,,-99.99,,2013-10-04 21:43:00,
2013-10-04 14:54:00,48.0,13.0,-100.00,NE,35,9.0,26.0,24,0.00,,,-99.99,,2013-10-04 21:54:00,
2013-10-04 15:03:00,48.0,13.0,-100.00,NE,35,9.0,26.0,24,0.00,,,-99.99,,2013-10-04 22:03:00,
2013-10-04 15:41:00,50.0,16.0,-100.00,NNE,32,11.0,25.0,25,0.00,,,-99.99,,2013-10-04 22:41:00,
2013-10-04 15:42:00,49.0,17.0,-100.00,NNE,32,9.0,26.0,28,0.00,,,-99.99,,2013-10-04 22:42:00,
2013-10-04 15:52:00,50.0,16.0,-100.00,NNE,21,7.0,26.0,26,0.00,,,-99.99,,2013-10-04 22:52:00,
2013-10-04 16:12:00,50.0,16.0,-100.00,NNE,32,11.0,25.0,25,0.00,,,-99.99,,2013-10-04 23:12:00,
2013-10-04 16:21:00,50.0,16.0,-100.00,NNE,32,11.0,25.0,25,0.00,,,-99.99,,2013-10-04 23:21:00,
2013-10-04 16:33:00,50.0,16.0,-100.00,NNE,32,11.0,25.0,25,0.00,,,-99.99,,2013-10-04 23:33:00,
2013-10-04 16:53:00,50.0,14.0,-100.00,North,1,9.0,19.0,23,0.00,,,-99.99,,2013-10-04 23:53:00,
2013-10-04 17:02:00,50.0,14.0,-100.00,North,1,9.0,19.0,23,0.00,,,-99.99,,2013-10-05 00:02:00,
2013-10-04 17:12:00,50.0,14.0,-100.00,North,1,9.0,19.0,23,0.00,,,-99.99,,2013-10-05 00:12:00,
2013-10-04 17:22:00,49.0,13.0,-100.00,North,356,9.0,19.0,23,0.00,,,-99.99,,2013-10-05 00:22:00,
2013-10-04 17:42:00,49.0,13.0,-100.00,North,1,8.0,19.0,23,0.00,,,-99.99,,2013-10-05 00:42:00,
2013-10-04 18:11:00,49.0,12.0,-100.00,NNW,339,6.0,14.0,22,0.00,,,-99.99,,2013-10-05 01:11:00,
2013-10-04 18:21:00,48.0,13.0,-100.00,NNW,346,6.0,17.0,24,0.00,,,-99.99,,2013-10-05 01:21:00,
2013-10-04 18:43:00,47.0,12.0,-100.00,NNW,333,6.0,20.0,24,0.00,,,-99.99,,2013-10-05 01:43:00,
2013-10-04 19:11:00,46.0,13.0,-100.00,NNW,339,5.0,15.0,26,0.00,,,-99.99,,2013-10-05 02:11:00,
2013-10-04 19:22:00,45.0,13.0,-100.00,NNW,337,4.0,12.0,27,0.00,,,-99.99,,2013-10-05 02:22:00,
2013-10-04 19:42:00,44.0,13.0,-100.00,NW,323,5.0,13.0,28,0.00,,,-99.99,,2013-10-05 02:42:00,
2013-10-04 20:12:00,44.0,12.0,-100.00,NNE,32,3.0,10.0,27,0.00,,,-99.99,,2013-10-05 03:12:00,
2013-10-04 20:22:00,43.0,12.0,-100.00,NE,35,2.0,6.0,28,0.00,,,-99.99,,2013-10-05 03:22:00,
2013-10-04 20:34:00,43.0,12.0,-100.00,NE,35,2.0,6.0,28,0.00,,,-99.99,,2013-10-05 03:34:00,
2013-10-04 20:45:00,43.0,12.0,-100.00,NE,35,2.0,6.0,28,0.00,,,-99.99,,2013-10-05 03:45:00,
2013-10-04 20:55:00,42.0,10.0,-100.00,NE,42,2.0,9.0,27,0.00,,,-99.99,,2013-10-05 03:55:00,
2013-10-04 21:14:00,42.0,11.0,-100.00,East,79,4.0,19.0,28,0.00,,,-99.99,,2013-10-05 04:14:00,
2013-10-04 21:24:00,42.0,11.0,-100.00,East,79,4.0,19.0,28,0.00,,,-99.99,,2013-10-05 04:24:00,
2013-10-04 21:43:00,42.0,11.0,-100.00,NE,54,3.0,9.0,28,0.00,,,-99.99,,2013-10-05 04:43:00,
2013-10-04 21:53:00,42.0,12.0,-100.00,ENE,71,5.0,14.0,29,0.00,,,-99.99,,2013-10-05 04:53:00,
2013-10-04 22:13:00,42.0,12.0,-100.00,ENE,65,5.0,17.0,29,0.00,,,-99.99,,2013-10-05 05:13:00,
2013-10-04 22:43:00,41.0,11.0,-100.00,NE,54,6.0,19.0,29,0.00,,,-99.99,,2013-10-05 05:43:00,
2013-10-04 22:52:00,41.0,13.0,-100.00,NE,42,3.0,17.0,31,0.00,,,-99.99,,2013-10-05 05:52:00,
2013-10-04 23:12:00,41.0,11.0,-100.00,NNE,24,6.0,17.0,29,0.00,,,-99.99,,2013-10-05 06:12:00,
2013-10-04 23:22:00,41.0,11.0,-100.00,NNE,24,6.0,17.0,29,0.00,,,-99.99,,2013-10-05 06:22:00,
2013-10-04 23:42:00,40.0,12.0,-100.00,NE,37,5.0,13.0,31,0.00,,,-99.99,,2013-10-05 06:42:00,
2013-10-04 23:52:00,40.0,12.0,-100.00,NNE,17,7.0,18.0,31,0.00,,,-99.99,,2013-10-05 06:52:00,